sensor_id;sensor_type;location;lat;lon;timestamp;temperature;humidity
1205;DHT22;592;48.764;9.174;2024-01-30T08:07:44;3.60;99.90
1205;DHT22;592;48.764;9.174;2024-01-30T08:10:13;3.60;99.90
1205;DHT22;592;48.764;9.174;2024-01-30T08:12:43;3.60;99.90
1205;DHT22;592;48.764;9.174;2024-01-30T08:15:13;3.70;99.90
1205;DHT22;592;48.764;9.174;2024-01-30T08:17:40;3.70;99.90
1205;DHT22;592;48.764;9.174;2024-01-30T08:20:12;3.70;99.90
1205;DHT22;592;48.764;9.174;2024-01-30T10:40:52;8.80;99.90
1205;DHT22;592;48.764;9.174;2024-01-30T10:43:22;8.90;99.90
1205;DHT22;592;48.764;9.174;2024-01-30T10:45:53;9.00;99.90
1205;DHT22;592;48.764;9.174;2024-01-30T10:48:57;9.10;99.90
1205;DHT22;592;48.764;9.174;2024-01-30T10:51:47;9.20;99.90
1205;DHT22;592;48.764;9.174;2024-01-30T10:54:15;9.30;99.90
1205;DHT22;592;48.764;9.174;2024-01-30T10:56:48;9.30;99.90
1205;DHT22;592;48.764;9.174;2024-01-30T10:59:53;9.40;99.90
1205;DHT22;592;48.764;9.174;2024-01-30T11:02:38;9.40;99.90
1205;DHT22;592;48.764;9.174;2024-01-30T11:05:50;9.50;99.90
1205;DHT22;592;48.764;9.174;2024-01-30T11:13:51;9.60;99.90
1205;DHT22;592;48.764;9.174;2024-01-30T11:19:53;9.90;99.90
1205;DHT22;592;48.764;9.174;2024-01-30T11:22:21;10.00;99.90
1205;DHT22;592;48.764;9.174;2024-01-30T11:24:51;10.00;99.90
1205;DHT22;592;48.764;9.174;2024-01-30T11:27:20;10.10;99.80
1205;DHT22;592;48.764;9.174;2024-01-30T11:29:51;10.00;99.00
1205;DHT22;592;48.764;9.174;2024-01-30T11:32:23;10.10;99.30
1205;DHT22;592;48.764;9.174;2024-01-30T11:34:56;10.10;99.50
1205;DHT22;592;48.764;9.174;2024-01-30T11:37:25;10.10;99.60
1205;DHT22;592;48.764;9.174;2024-01-30T11:39:55;10.20;99.90
1205;DHT22;592;48.764;9.174;2024-01-30T11:42:25;10.20;99.00
1205;DHT22;592;48.764;9.174;2024-01-30T11:47:31;10.40;99.50
1205;DHT22;592;48.764;9.174;2024-01-30T11:50:15;10.40;99.00
1205;DHT22;592;48.764;9.174;2024-01-30T11:52:41;10.40;98.70
1205;DHT22;592;48.764;9.174;2024-01-30T11:55:09;10.40;98.20
1205;DHT22;592;48.764;9.174;2024-01-30T11:57:38;10.40;98.00
1205;DHT22;592;48.764;9.174;2024-01-30T12:00:56;10.50;98.20
1205;DHT22;592;48.764;9.174;2024-01-30T12:04:09;10.50;98.40
1205;DHT22;592;48.764;9.174;2024-01-30T12:06:54;10.30;98.40
1205;DHT22;592;48.764;9.174;2024-01-30T12:09:28;10.60;99.20
1205;DHT22;592;48.764;9.174;2024-01-30T12:12:12;10.60;98.80
1205;DHT22;592;48.764;9.174;2024-01-30T12:17:09;10.70;98.20
1205;DHT22;592;48.764;9.174;2024-01-30T16:55:13;9.50;99.90
1205;DHT22;592;48.764;9.174;2024-01-30T16:58:03;9.50;99.90
1205;DHT22;592;48.764;9.174;2024-01-30T17:00:30;9.50;99.90
1205;DHT22;592;48.764;9.174;2024-01-30T20:09:38;9.10;99.90
1205;DHT22;592;48.764;9.174;2024-01-30T20:23:14;9.10;99.90
1205;DHT22;592;48.764;9.174;2024-01-30T20:26:14;9.20;99.90
1205;DHT22;592;48.764;9.174;2024-01-30T20:28:43;9.10;99.90
1205;DHT22;592;48.764;9.174;2024-01-30T20:31:11;9.10;99.90
1205;DHT22;592;48.764;9.174;2024-01-30T20:33:40;9.20;99.90
1205;DHT22;592;48.764;9.174;2024-01-30T20:36:14;9.10;99.90
1205;DHT22;592;48.764;9.174;2024-01-30T21:01:09;8.70;99.90
1205;DHT22;592;48.764;9.174;2024-01-30T21:03:38;8.70;99.90
1205;DHT22;592;48.764;9.174;2024-01-30T21:06:20;8.70;99.90
1205;DHT22;592;48.764;9.174;2024-01-30T21:09:04;8.60;99.90
1205;DHT22;592;48.764;9.174;2024-01-30T21:11:39;8.60;99.90
1205;DHT22;592;48.764;9.174;2024-01-30T21:14:21;8.60;99.90
1205;DHT22;592;48.764;9.174;2024-01-30T21:16:57;8.50;99.90
1205;DHT22;592;48.764;9.174;2024-01-30T21:19:26;8.40;99.90
1205;DHT22;592;48.764;9.174;2024-01-30T21:22:05;8.40;99.90
1205;DHT22;592;48.764;9.174;2024-01-30T21:24:46;8.40;99.90
1205;DHT22;592;48.764;9.174;2024-01-30T21:27:17;8.50;99.90
1205;DHT22;592;48.764;9.174;2024-01-30T21:30:09;8.30;99.90
1205;DHT22;592;48.764;9.174;2024-01-30T21:36:29;8.10;99.90
1205;DHT22;592;48.764;9.174;2024-01-30T21:39:03;8.20;99.90
1205;DHT22;592;48.764;9.174;2024-01-30T21:41:32;8.30;99.90
1205;DHT22;592;48.764;9.174;2024-01-30T21:44:58;8.30;99.90
1205;DHT22;592;48.764;9.174;2024-01-30T21:47:31;8.40;99.90
1205;DHT22;592;48.764;9.174;2024-01-30T21:50:23;8.40;99.90
1205;DHT22;592;48.764;9.174;2024-01-30T21:53:25;8.40;99.90
1205;DHT22;592;48.764;9.174;2024-01-30T21:56:10;8.10;99.90
1205;DHT22;592;48.764;9.174;2024-01-30T21:59:26;8.10;99.90
1205;DHT22;592;48.764;9.174;2024-01-30T22:01:53;8.10;99.90
1205;DHT22;592;48.764;9.174;2024-01-30T22:04:20;7.70;99.90
1205;DHT22;592;48.764;9.174;2024-01-30T22:06:49;7.80;99.90
1205;DHT22;592;48.764;9.174;2024-01-30T22:09:16;7.90;99.90
1205;DHT22;592;48.764;9.174;2024-01-30T22:11:42;8.00;99.90
1205;DHT22;592;48.764;9.174;2024-01-30T22:14:08;8.10;99.90
1205;DHT22;592;48.764;9.174;2024-01-30T22:16:37;8.00;99.90
1205;DHT22;592;48.764;9.174;2024-01-30T22:19:06;8.00;99.90
1205;DHT22;592;48.764;9.174;2024-01-30T22:21:35;8.10;99.90
1205;DHT22;592;48.764;9.174;2024-01-30T22:24:02;8.00;99.90
1205;DHT22;592;48.764;9.174;2024-01-30T22:26:29;7.80;99.90
1205;DHT22;592;48.764;9.174;2024-01-30T22:28:56;7.90;99.90
1205;DHT22;592;48.764;9.174;2024-01-30T22:31:23;7.80;99.90
1205;DHT22;592;48.764;9.174;2024-01-30T22:33:51;7.90;99.90
1205;DHT22;592;48.764;9.174;2024-01-30T22:36:19;8.00;99.90
1205;DHT22;592;48.764;9.174;2024-01-30T22:38:45;8.10;99.90
1205;DHT22;592;48.764;9.174;2024-01-30T22:41:12;8.10;99.90
1205;DHT22;592;48.764;9.174;2024-01-30T22:43:41;7.90;99.90
1205;DHT22;592;48.764;9.174;2024-01-30T22:46:08;8.00;99.90
1205;DHT22;592;48.764;9.174;2024-01-30T22:48:35;7.80;99.90
1205;DHT22;592;48.764;9.174;2024-01-30T22:51:05;8.00;99.90
1205;DHT22;592;48.764;9.174;2024-01-30T22:53:32;8.10;99.90
1205;DHT22;592;48.764;9.174;2024-01-30T22:56:00;7.90;99.90
1205;DHT22;592;48.764;9.174;2024-01-30T22:58:26;7.80;99.90
1205;DHT22;592;48.764;9.174;2024-01-30T23:00:54;7.90;99.90
1205;DHT22;592;48.764;9.174;2024-01-30T23:03:21;8.00;99.90
1205;DHT22;592;48.764;9.174;2024-01-30T23:05:50;7.90;99.90
1205;DHT22;592;48.764;9.174;2024-01-30T23:08:18;8.00;99.90
1205;DHT22;592;48.764;9.174;2024-01-30T23:10:45;8.00;99.90
1205;DHT22;592;48.764;9.174;2024-01-30T23:13:15;8.10;99.90
1205;DHT22;592;48.764;9.174;2024-01-30T23:15:42;7.90;99.90
1205;DHT22;592;48.764;9.174;2024-01-30T23:18:09;8.00;99.90
1205;DHT22;592;48.764;9.174;2024-01-30T23:20:36;8.00;99.90
1205;DHT22;592;48.764;9.174;2024-01-30T23:23:04;8.10;99.90
1205;DHT22;592;48.764;9.174;2024-01-30T23:25:33;7.80;99.90
1205;DHT22;592;48.764;9.174;2024-01-30T23:27:59;7.60;99.90
1205;DHT22;592;48.764;9.174;2024-01-30T23:30:26;7.70;99.90
1205;DHT22;592;48.764;9.174;2024-01-30T23:32:53;7.70;99.90
1205;DHT22;592;48.764;9.174;2024-01-30T23:35:20;7.90;99.90
1205;DHT22;592;48.764;9.174;2024-01-30T23:37:52;7.90;99.90
1205;DHT22;592;48.764;9.174;2024-01-30T23:40:22;8.00;99.90
1205;DHT22;592;48.764;9.174;2024-01-30T23:42:50;8.10;99.90
1205;DHT22;592;48.764;9.174;2024-01-30T23:45:18;8.20;99.90
1205;DHT22;592;48.764;9.174;2024-01-30T23:50:25;8.20;99.90
